Time;durP1;ratioP1;P1;durP2;ratioP2;P2;SDS_P1;SDS_P2;PMS_P1;PMS_P2;Temp;Humidity;BMP_temperature;BMP_pressure;BME280_temperature;BME280_humidity;BME280_pressure;Samples;Min_cycle;Max_cycle;Signal;HPM_P1;HPM_P2
2022/01/22 00:02:22;;;;;;;6.70;5.73;;;0.90;99.90;;;;;;5017751;28;20183;-83
2022/01/22 00:04:48;;;;;;;8.93;5.83;;;1.00;99.90;;;;;;5001143;28;20190;-83
2022/01/22 00:07:13;;;;;;;7.83;5.63;;;1.60;99.90;;;;;;5023079;28;20242;-84
2022/01/22 00:09:46;;;;;;;8.27;6.33;;;1.10;99.90;;;;;;5018706;28;20178;-84
2022/01/22 00:12:23;;;;;;;9.33;6.50;;;1.10;99.90;;;;;;5011650;28;20184;-84
2022/01/22 00:14:48;;;;;;;9.47;5.83;;;0.90;99.90;;;;;;5008649;28;20195;-83
2022/01/22 00:17:14;;;;;;;7.23;5.90;;;0.90;99.90;;;;;;5006999;28;20241;-83
2022/01/22 00:19:40;;;;;;;7.60;6.07;;;0.70;99.90;;;;;;5016614;28;20526;-84
2022/01/22 00:22:05;;;;;;;8.63;6.17;;;0.80;99.90;;;;;;5016979;28;20652;-84
2022/01/22 00:24:37;;;;;;;10.67;6.10;;;0.70;99.90;;;;;;5015087;28;20274;-83
2022/01/22 00:27:03;;;;;;;8.20;5.70;;;0.60;99.90;;;;;;5015669;28;20666;-83
2022/01/22 00:29:29;;;;;;;11.83;5.90;;;0.60;99.90;;;;;;5017007;28;20556;-83
2022/01/22 00:31:55;;;;;;;6.33;5.10;;;0.60;99.90;;;;;;5017069;28;20175;-84
2022/01/22 00:34:20;;;;;;;14.17;6.67;;;0.60;99.90;;;;;;5017504;28;20218;-83
2022/01/22 00:36:46;;;;;;;11.13;6.33;;;0.60;99.90;;;;;;4999893;28;20257;-82
2022/01/22 00:39:12;;;;;;;64.37;18.93;;;0.60;99.90;;;;;;4998424;28;20178;-83
2022/01/22 00:41:37;;;;;;;26.17;10.67;;;0.60;99.90;;;;;;5015053;28;20189;-83
2022/01/22 00:44:03;;;;;;;16.23;7.03;;;0.70;99.90;;;;;;5016832;28;20597;-84
2022/01/22 00:46:29;;;;;;;13.57;6.30;;;0.80;99.90;;;;;;5016187;28;20203;-84
2022/01/22 00:48:55;;;;;;;7.97;6.10;;;0.80;99.90;;;;;;5001686;28;20199;-84
2022/01/22 00:51:20;;;;;;;8.53;5.20;;;0.70;99.90;;;;;;5018293;28;20190;-83
2022/01/22 00:53:46;;;;;;;9.00;5.20;;;0.70;99.90;;;;;;5020906;28;20179;-82
2022/01/22 00:56:13;;;;;;;5.97;3.87;;;0.70;99.90;;;;;;5020345;28;20202;-83
2022/01/22 00:58:39;;;;;;;7.93;4.70;;;0.80;99.90;;;;;;5019103;28;20182;-83
2022/01/22 01:01:04;;;;;;;9.57;4.77;;;0.80;99.90;;;;;;5009376;28;20171;-82
2022/01/22 01:03:33;;;;;;;6.63;4.97;;;0.80;99.90;;;;;;5019724;28;20191;-83
2022/01/22 01:06:00;;;;;;;9.57;4.40;;;0.90;99.90;;;;;;5019529;28;20194;-83
2022/01/22 01:08:27;;;;;;;9.20;4.10;;;0.90;99.90;;;;;;5019708;28;20167;-83
2022/01/22 01:10:53;;;;;;;7.20;3.93;;;0.70;99.90;;;;;;5018882;28;20167;-83
2022/01/22 01:13:20;;;;;;;5.47;4.00;;;0.70;99.90;;;;;;5018742;28;20182;-83
2022/01/22 01:34:58;;;;;;;6.73;4.27;;;0.70;99.90;;;;;;5014955;28;20207;-83
2022/01/22 01:37:24;;;;;;;6.70;3.10;;;0.60;99.90;;;;;;5015039;28;20192;-82
2022/01/22 01:39:54;;;;;;;7.80;3.80;;;0.70;99.90;;;;;;5010446;28;20185;-83
2022/01/22 01:42:32;;;;;;;6.37;4.20;;;0.70;99.90;;;;;;5018779;28;20195;-83
2022/01/22 01:45:01;;;;;;;5.60;2.60;;;0.80;99.90;;;;;;5019089;28;20538;-83
2022/01/22 01:47:26;;;;;;;5.93;2.50;;;0.80;99.90;;;;;;5016872;28;20191;-83
2022/01/22 01:49:52;;;;;;;5.60;2.33;;;0.90;99.90;;;;;;5008420;28;20194;-83
2022/01/22 01:52:25;;;;;;;4.47;3.00;;;1.30;99.90;;;;;;5019169;28;20182;-84
2022/01/22 01:55:10;;;;;;;5.10;2.70;;;1.40;99.90;;;;;;5018914;28;20221;-83
2022/01/22 01:57:39;;;;;;;3.10;2.37;;;1.10;99.90;;;;;;5018202;28;20222;-83
2022/01/22 02:00:09;;;;;;;5.50;2.40;;;1.20;99.90;;;;;;4996667;28;20596;-83
2022/01/22 02:02:36;;;;;;;9.50;3.87;;;1.30;99.90;;;;;;5013933;28;20176;-83
2022/01/22 02:05:02;;;;;;;5.07;2.90;;;1.30;99.90;;;;;;5001122;28;20207;-83
2022/01/22 02:07:28;;;;;;;4.90;2.63;;;1.20;99.90;;;;;;5017958;28;20195;-83
2022/01/22 02:09:53;;;;;;;6.77;3.20;;;1.20;99.90;;;;;;5018644;28;20258;-83
2022/01/22 02:26:05;;;;;;;5.80;3.40;;;1.20;99.90;;;;;;5019434;28;20535;-83
2022/01/22 02:28:32;;;;;;;8.33;4.00;;;1.50;99.90;;;;;;5018053;28;20171;-83
2022/01/22 02:31:07;;;;;;;3.93;3.37;;;1.20;99.90;;;;;;5014657;28;20190;-82
2022/01/22 02:33:52;;;;;;;7.50;3.63;;;1.30;99.90;;;;;;5017973;28;20171;-82
2022/01/22 02:36:23;;;;;;;5.77;3.07;;;1.10;99.90;;;;;;5017323;28;20187;-83
2022/01/22 02:39:14;;;;;;;7.60;4.03;;;1.10;99.90;;;;;;5019718;28;20213;-83
2022/01/22 02:41:49;;;;;;;6.07;3.80;;;1.00;99.90;;;;;;5016526;28;20217;-83
2022/01/22 02:44:26;;;;;;;7.13;3.97;;;1.20;99.90;;;;;;5016351;28;20175;-83
2022/01/22 02:46:52;;;;;;;7.53;3.83;;;1.00;99.90;;;;;;5016171;28;20285;-83
2022/01/22 02:49:18;;;;;;;5.47;3.30;;;0.90;99.90;;;;;;5017812;28;20206;-83
2022/01/22 02:51:44;;;;;;;8.30;3.73;;;1.00;99.90;;;;;;5019552;28;20174;-84
2022/01/22 02:54:09;;;;;;;8.67;3.90;;;1.00;99.90;;;;;;5017837;28;20681;-83
2022/01/22 02:56:35;;;;;;;7.30;3.63;;;1.20;99.90;;;;;;5017123;28;20233;-83
2022/01/22 02:59:00;;;;;;;7.00;3.50;;;1.00;99.90;;;;;;5019073;28;20186;-83
2022/01/22 03:01:26;;;;;;;6.47;3.80;;;1.00;99.90;;;;;;5009711;28;20175;-83
2022/01/22 03:03:52;;;;;;;14.13;3.90;;;0.90;99.90;;;;;;5014390;28;20597;-82
2022/01/22 03:06:18;;;;;;;8.27;3.70;;;0.90;99.90;;;;;;5016394;28;20546;-83
2022/01/22 03:08:46;;;;;;;10.43;4.70;;;0.90;99.90;;;;;;4998834;28;20179;-84
2022/01/22 03:11:25;;;;;;;8.43;3.97;;;0.90;99.90;;;;;;5017258;28;20175;-82
2022/01/22 03:16:49;;;;;;;7.50;3.90;;;1.30;99.90;;;;;;5018161;28;20260;-83
2022/01/22 03:19:31;;;;;;;6.97;4.03;;;1.10;99.90;;;;;;5014756;28;20171;-83
2022/01/22 03:22:25;;;;;;;7.13;3.97;;;1.10;99.90;;;;;;5017621;28;20163;-82
2022/01/22 03:27:30;;;;;;;7.63;3.93;;;1.00;99.90;;;;;;5019408;28;20257;-84
2022/01/22 03:29:56;;;;;;;7.20;4.33;;;1.00;99.90;;;;;;5017424;28;20185;-82
2022/01/22 03:32:24;;;;;;;6.50;4.13;;;1.00;99.90;;;;;;5016571;28;20179;-83
2022/01/22 03:34:59;;;;;;;7.27;3.57;;;0.90;99.90;;;;;;5017536;28;20202;-81
2022/01/22 03:37:26;;;;;;;5.37;3.70;;;1.00;99.90;;;;;;4996449;28;20226;-82
2022/01/22 03:39:55;;;;;;;6.17;3.80;;;1.00;99.90;;;;;;5017144;28;20179;-82
2022/01/22 03:42:21;;;;;;;5.87;3.70;;;1.10;99.90;;;;;;5020626;28;20182;-83
2022/01/22 03:44:47;;;;;;;5.80;3.57;;;0.90;99.90;;;;;;5027052;28;20171;-82
2022/01/22 03:47:15;;;;;;;7.83;4.33;;;0.90;99.90;;;;;;5022619;28;20217;-83
2022/01/22 03:49:41;;;;;;;6.63;4.10;;;0.90;99.90;;;;;;5020433;28;20191;-83
2022/01/22 03:52:06;;;;;;;9.77;4.53;;;1.00;99.90;;;;;;5001609;28;20237;-83
2022/01/22 03:54:32;;;;;;;6.33;4.20;;;1.00;99.90;;;;;;5017678;28;20222;-84
2022/01/22 03:56:58;;;;;;;5.37;3.83;;;1.10;99.90;;;;;;5002037;28;20282;-83
2022/01/22 03:59:24;;;;;;;6.40;3.77;;;1.10;99.90;;;;;;5017739;28;20214;-83
2022/01/22 04:04:47;;;;;;;6.43;3.40;;;1.40;99.90;;;;;;5021043;28;20186;-84
2022/01/22 04:10:01;;;;;;;5.57;3.73;;;1.10;99.90;;;;;;5021806;28;20212;-84
2022/01/22 04:12:56;;;;;;;5.27;4.23;;;1.10;99.90;;;;;;5013615;28;20225;-84
2022/01/22 04:15:17;;;;;;;7.27;4.30;;;1.10;99.90;;;;;;5020700;28;20246;-84
2022/01/22 04:25:50;;;;;;;7.63;4.17;;;1.00;99.90;;;;;;5024008;28;20582;-84
2022/01/22 04:28:15;;;;;;;8.20;4.17;;;1.10;99.90;;;;;;5023900;28;20171;-84
2022/01/22 04:30:41;;;;;;;6.83;4.40;;;1.10;99.90;;;;;;5004458;28;20171;-85
2022/01/22 04:33:06;;;;;;;6.13;4.20;;;1.10;99.90;;;;;;5030598;28;20183;-83
2022/01/22 04:35:33;;;;;;;5.53;4.13;;;1.10;99.90;;;;;;5032575;28;20242;-83
2022/01/22 04:37:58;;;;;;;6.77;4.13;;;1.80;99.90;;;;;;5037479;28;20186;-84
2022/01/22 04:40:24;;;;;;;4.47;3.93;;;1.10;99.90;;;;;;5038647;28;20199;-83
2022/01/22 04:42:50;;;;;;;7.10;4.10;;;1.10;99.90;;;;;;5037089;28;20239;-83
2022/01/22 04:48:14;;;;;;;4.23;3.83;;;1.20;99.90;;;;;;5026832;28;20681;-84
2022/01/22 04:56:08;;;;;;;6.97;3.77;;;1.20;99.90;;;;;;5024161;28;20282;-84
2022/01/22 04:58:33;;;;;;;7.63;4.20;;;1.20;99.90;;;;;;5023535;28;20238;-84
2022/01/22 05:00:59;;;;;;;7.87;3.93;;;1.20;99.90;;;;;;5021545;28;20219;-85
2022/01/22 05:03:25;;;;;;;7.73;4.00;;;1.20;99.90;;;;;;5014865;28;20188;-84
2022/01/22 05:05:51;;;;;;;8.27;4.23;;;1.20;99.90;;;;;;5017629;28;20211;-84
2022/01/22 05:08:16;;;;;;;7.13;3.97;;;1.20;99.90;;;;;;5021986;28;20190;-83
2022/01/22 05:10:42;;;;;;;5.27;3.73;;;1.20;99.90;;;;;;5004972;28;20222;-83
2022/01/22 05:13:07;;;;;;;6.97;4.23;;;1.20;99.90;;;;;;5014582;28;20186;-84
2022/01/22 05:15:33;;;;;;;6.63;3.60;;;1.10;99.90;;;;;;5023619;28;20195;-84
2022/01/22 05:17:59;;;;;;;5.90;3.83;;;1.10;99.90;;;;;;5022847;28;20179;-84
2022/01/22 05:20:30;;;;;;;5.57;4.07;;;1.40;99.90;;;;;;5005949;28;20179;-84
2022/01/22 05:23:09;;;;;;;8.77;3.63;;;1.00;99.90;;;;;;5023817;28;20205;-84
2022/01/22 05:25:41;;;;;;;5.80;4.10;;;1.00;99.90;;;;;;5023068;28;20175;-83
2022/01/22 05:38:39;;;;;;;6.67;3.40;;;1.00;99.90;;;;;;5018009;28;20178;-84
2022/01/22 05:41:04;;;;;;;5.47;3.70;;;1.10;99.90;;;;;;5024719;28;20257;-84
2022/01/22 05:43:30;;;;;;;4.43;3.30;;;1.00;99.90;;;;;;5022848;28;20183;-83
2022/01/22 05:45:56;;;;;;;5.33;3.63;;;1.00;99.90;;;;;;5023679;28;20247;-84
2022/01/22 05:48:22;;;;;;;4.90;3.90;;;1.00;99.90;;;;;;5007059;28;20202;-84
2022/01/22 05:50:55;;;;;;;6.13;3.87;;;1.10;99.90;;;;;;5023959;28;20175;-83
2022/01/22 06:01:13;;;;;;;6.73;4.00;;;1.10;99.90;;;;;;5023845;28;20262;-84
2022/01/22 06:03:39;;;;;;;6.20;4.13;;;1.10;99.90;;;;;;5021026;28;20183;-85
2022/01/22 06:06:05;;;;;;;5.13;3.30;;;1.10;99.90;;;;;;5019745;28;20262;-84
2022/01/22 06:08:34;;;;;;;5.10;3.33;;;1.10;99.90;;;;;;5020600;28;20188;-83
2022/01/22 06:11:07;;;;;;;5.57;4.60;;;1.10;99.90;;;;;;5009059;28;20180;-84
2022/01/22 06:13:46;;;;;;;6.60;3.70;;;1.10;99.90;;;;;;5012907;28;20219;-85
2022/01/22 06:16:17;;;;;;;5.27;4.20;;;1.00;99.90;;;;;;5024532;28;20201;-84
2022/01/22 06:18:43;;;;;;;8.03;3.97;;;1.10;99.90;;;;;;5025485;28;20178;-84
2022/01/22 06:21:09;;;;;;;5.67;4.13;;;1.20;99.90;;;;;;5005895;28;20624;-84
2022/01/22 06:23:39;;;;;;;8.57;3.70;;;1.20;99.90;;;;;;5015198;28;20180;-84
2022/01/22 06:26:06;;;;;;;6.33;4.00;;;1.20;99.90;;;;;;5016310;28;20203;-85
2022/01/22 06:28:32;;;;;;;5.17;4.03;;;1.20;99.90;;;;;;5004634;28;20179;-84
2022/01/22 06:30:58;;;;;;;5.83;3.73;;;1.20;99.90;;;;;;5007873;28;20189;-83
2022/01/22 06:33:24;;;;;;;6.43;4.30;;;1.20;99.90;;;;;;5020448;28;20183;-84
2022/01/22 06:35:50;;;;;;;7.90;4.00;;;1.20;99.90;;;;;;5024068;28;20226;-85
2022/01/22 06:38:16;;;;;;;6.00;4.33;;;1.20;99.90;;;;;;5024321;28;20201;-85
2022/01/22 06:43:09;;;;;;;6.30;4.30;;;1.20;99.90;;;;;;5024133;28;20547;-84
2022/01/22 06:45:34;;;;;;;4.27;3.73;;;1.30;99.90;;;;;;5004435;28;20195;-84
2022/01/22 06:48:01;;;;;;;9.20;4.13;;;1.30;99.90;;;;;;5023331;28;20196;-84
2022/01/22 06:50:26;;;;;;;6.03;4.40;;;1.30;99.90;;;;;;5023038;28;20187;-84
2022/01/22 06:52:57;;;;;;;7.87;4.67;;;1.30;99.90;;;;;;5023662;28;20183;-85
2022/01/22 06:55:38;;;;;;;8.63;4.60;;;1.40;99.90;;;;;;5023364;28;20252;-84
2022/01/22 06:58:07;;;;;;;8.60;4.80;;;1.60;99.90;;;;;;5023804;28;20182;-84
2022/01/22 07:00:33;;;;;;;5.87;4.17;;;1.30;99.90;;;;;;5005556;28;20273;-84
2022/01/22 07:02:59;;;;;;;7.10;4.43;;;1.30;99.90;;;;;;5018089;28;20226;-84
2022/01/22 07:05:25;;;;;;;7.73;4.30;;;1.40;99.90;;;;;;5012590;28;20187;-84
2022/01/22 07:07:53;;;;;;;8.60;4.23;;;1.40;99.90;;;;;;5028174;28;20191;-84
2022/01/22 07:13:11;;;;;;;10.20;4.17;;;1.30;99.90;;;;;;5019683;28;20191;-85
2022/01/22 07:25:29;;;;;;;7.50;3.97;;;1.20;99.90;;;;;;5018384;28;20202;-83
2022/01/22 07:28:10;;;;;;;7.43;4.53;;;1.90;99.90;;;;;;5013008;28;20179;-83
2022/01/22 07:31:00;;;;;;;18.63;7.80;;;1.30;99.90;;;;;;5001621;28;20171;-83
2022/01/22 07:33:38;;;;;;;;;;;;;;;;;;;;;
2022/01/22 07:36:07;;;;;;;7.53;4.50;;;1.10;99.90;;;;;;5012015;28;20219;-81
2022/01/22 07:38:38;;;;;;;7.80;4.37;;;2.10;99.90;;;;;;5012989;28;20198;-83
2022/01/22 07:41:47;;;;;;;10.47;7.33;;;1.80;99.90;;;;;;5017526;28;20210;-82
2022/01/22 07:44:29;;;;;;;5.80;4.67;;;2.40;99.90;;;;;;5000958;28;20252;-81
2022/01/22 07:47:19;;;;;;;8.43;4.03;;;0.90;99.90;;;;;;5010623;28;20199;-82
2022/01/22 07:50:02;;;;;;;7.87;4.33;;;0.80;99.90;;;;;;5007866;28;20646;-82
2022/01/22 07:53:12;;;;;;;;;;;;;;;;;;;;;
2022/01/22 07:55:40;;;;;;;8.00;4.33;;;1.30;99.90;;;;;;5020719;28;20251;-83
2022/01/22 07:58:14;;;;;;;12.23;4.40;;;1.30;99.90;;;;;;5001605;28;20179;-83
2022/01/22 08:01:45;;;;;;;;;;;;;;;;;;;;;
2022/01/22 08:04:43;;;;;;;7.67;3.97;;;1.50;99.90;;;;;;4958769;29;20301;-83
2022/01/22 08:07:13;;;;;;;6.30;3.63;;;1.30;99.90;;;;;;4976032;28;20214;-82
2022/01/22 08:09:41;;;;;;;10.47;4.17;;;1.90;99.90;;;;;;4999477;28;20226;-83
2022/01/22 08:12:08;;;;;;;9.83;4.53;;;1.30;99.90;;;;;;4983875;28;20190;-82
2022/01/22 08:14:39;;;;;;;5.73;4.17;;;1.30;99.90;;;;;;4999809;28;20206;-82
2022/01/22 09:04:27;;;;;;;7.70;5.23;;;1.70;99.90;;;;;;5739228;22;20229;-81
2022/01/22 09:06:53;;;;;;;9.50;4.90;;;2.00;99.90;;;;;;5037593;28;20184;-80
2022/01/22 09:09:19;;;;;;;8.77;4.97;;;1.70;99.90;;;;;;5019408;28;20178;-80
2022/01/22 09:11:45;;;;;;;7.13;4.40;;;1.60;99.90;;;;;;5044830;28;20539;-81
2022/01/22 09:14:16;;;;;;;6.13;3.80;;;1.70;99.90;;;;;;5030290;28;20216;-80
2022/01/22 09:16:43;;;;;;;7.50;4.73;;;1.70;99.90;;;;;;5023826;28;20195;-80
2022/01/22 09:19:10;;;;;;;7.97;4.60;;;1.80;99.90;;;;;;5051202;22;20863;-77
2022/01/22 09:21:42;;;;;;;9.50;5.83;;;1.80;99.90;;;;;;5039932;28;20190;-77
2022/01/22 09:24:09;;;;;;;7.37;5.00;;;1.80;99.90;;;;;;5049607;28;20760;-77
2022/01/22 09:26:35;;;;;;;6.27;4.87;;;2.00;99.90;;;;;;5031404;28;20177;-78
2022/01/22 09:29:01;;;;;;;6.20;4.33;;;1.80;99.90;;;;;;5047411;28;20177;-77
2022/01/22 09:31:28;;;;;;;6.87;4.43;;;1.80;99.90;;;;;;5027525;28;20179;-78
2022/01/22 09:33:59;;;;;;;7.83;4.90;;;1.90;99.90;;;;;;5031880;28;20527;-78
2022/01/22 09:36:26;;;;;;;6.20;5.00;;;1.80;99.90;;;;;;5013640;28;20208;-79
2022/01/22 09:38:53;;;;;;;7.53;4.63;;;1.90;99.90;;;;;;5010773;28;20183;-78
2022/01/22 09:41:20;;;;;;;7.17;5.50;;;1.90;99.90;;;;;;5020585;28;20174;-78
2022/01/22 09:43:46;;;;;;;12.00;5.20;;;1.90;99.90;;;;;;5000630;28;20346;-77
2022/01/22 09:46:12;;;;;;;10.47;4.60;;;1.90;99.90;;;;;;5005308;28;20538;-77
2022/01/22 09:48:42;;;;;;;7.10;5.23;;;1.80;99.90;;;;;;5016918;28;20175;-78
2022/01/22 09:51:08;;;;;;;7.77;5.00;;;1.90;99.90;;;;;;5017583;28;20210;-78
2022/01/22 09:53:35;;;;;;;7.77;5.10;;;1.90;99.90;;;;;;5018161;28;20179;-78
2022/01/22 09:56:00;;;;;;;9.37;5.50;;;2.00;99.90;;;;;;5002124;28;20188;-77
2022/01/22 09:58:44;;;;;;;8.90;5.27;;;2.00;99.90;;;;;;5017455;28;20211;-78
2022/01/22 10:01:26;;;;;;;12.20;5.50;;;2.00;99.90;;;;;;4996672;28;20502;-79
2022/01/22 10:03:57;;;;;;;9.17;5.33;;;2.00;99.90;;;;;;5013125;28;20183;-78
2022/01/22 10:06:26;;;;;;;7.57;5.27;;;2.00;99.90;;;;;;4991369;28;20196;-79
2022/01/22 10:08:56;;;;;;;6.93;5.07;;;2.00;99.90;;;;;;5020169;28;20178;-78
2022/01/22 10:11:26;;;;;;;7.73;5.07;;;2.10;99.90;;;;;;5012436;28;20583;-77
2022/01/22 10:13:58;;;;;;;8.50;6.00;;;2.10;99.90;;;;;;5014282;28;20197;-77
2022/01/22 10:16:32;;;;;;;8.77;5.40;;;2.10;99.90;;;;;;5009277;28;20211;-80
2022/01/22 10:19:22;;;;;;;10.13;5.67;;;2.20;99.90;;;;;;5008232;28;20247;-80
2022/01/22 10:21:57;;;;;;;8.67;5.77;;;2.20;99.90;;;;;;5004079;28;20604;-80
2022/01/22 10:24:42;;;;;;;11.13;5.63;;;2.20;99.90;;;;;;5006720;28;20200;-81
2022/01/22 10:30:06;;;;;;;8.43;5.53;;;2.20;99.90;;;;;;5013575;28;20270;-81
2022/01/22 10:32:49;;;;;;;12.13;8.10;;;2.20;99.90;;;;;;5023166;28;20175;-80
2022/01/22 10:35:18;;;;;;;13.63;9.03;;;2.30;99.90;;;;;;5022722;28;20190;-80
2022/01/22 10:37:45;;;;;;;8.93;6.43;;;2.40;99.90;;;;;;5022012;28;20231;-80
2022/01/22 10:40:28;;;;;;;9.47;6.33;;;2.40;99.90;;;;;;5019145;28;20210;-78
2022/01/22 10:43:15;;;;;;;8.63;6.13;;;2.60;99.90;;;;;;5017922;28;20179;-78
2022/01/22 10:45:55;;;;;;;6.87;6.17;;;2.60;99.90;;;;;;5017213;28;20185;-79
2022/01/22 10:48:21;;;;;;;9.13;5.70;;;2.70;99.90;;;;;;5016657;28;20290;-79
2022/01/22 10:51:09;;;;;;;9.77;5.73;;;2.60;99.90;;;;;;5015793;28;20334;-78
2022/01/22 10:53:50;;;;;;;11.13;6.57;;;2.70;99.90;;;;;;5016507;28;20186;-78
2022/01/22 10:56:22;;;;;;;8.23;5.77;;;2.70;99.90;;;;;;4999943;28;20186;-78
2022/01/22 10:59:00;;;;;;;9.43;5.27;;;2.70;99.90;;;;;;5017119;28;20287;-79
2022/01/22 11:01:54;;;;;;;7.57;5.93;;;2.70;99.90;;;;;;4996730;28;20179;-79
2022/01/22 11:04:23;;;;;;;11.07;5.43;;;2.80;99.90;;;;;;5006486;28;20635;-78
2022/01/22 11:06:52;;;;;;;12.30;6.47;;;2.70;99.90;;;;;;5017178;28;20720;-79
2022/01/22 11:09:19;;;;;;;9.37;6.00;;;2.70;99.90;;;;;;5012680;28;20204;-79
2022/01/22 11:11:45;;;;;;;8.43;5.93;;;2.80;99.90;;;;;;5002724;28;20586;-80
2022/01/22 11:14:12;;;;;;;9.00;6.10;;;2.80;99.90;;;;;;5007057;28;20236;-80
2022/01/22 11:16:40;;;;;;;12.03;6.37;;;2.80;99.90;;;;;;4994759;28;20591;-81
2022/01/22 11:19:10;;;;;;;7.07;5.57;;;2.90;99.90;;;;;;5016051;28;20289;-78
2022/01/22 11:21:40;;;;;;;9.50;6.47;;;2.90;99.90;;;;;;5009763;28;20723;-80
2022/01/22 11:24:08;;;;;;;7.40;5.83;;;3.20;99.90;;;;;;5006144;28;20306;-79
2022/01/22 11:26:37;;;;;;;7.80;5.93;;;2.90;99.90;;;;;;5012814;28;20188;-78
2022/01/22 11:29:03;;;;;;;9.03;6.77;;;3.00;99.90;;;;;;5015734;28;20180;-80
2022/01/22 11:31:30;;;;;;;7.77;6.30;;;3.00;99.90;;;;;;5011077;28;20180;-81
2022/01/22 11:33:57;;;;;;;8.60;6.10;;;3.10;99.90;;;;;;5013169;28;20218;-78
2022/01/22 11:36:34;;;;;;;11.13;6.37;;;3.10;99.90;;;;;;5013224;28;20683;-79
2022/01/22 11:39:01;;;;;;;11.67;6.47;;;3.10;99.90;;;;;;5011053;28;20540;-77
2022/01/22 11:41:27;;;;;;;13.67;6.47;;;3.40;99.90;;;;;;5007960;28;20188;-76
2022/01/22 11:44:12;;;;;;;10.07;6.37;;;3.10;99.90;;;;;;5004461;28;20176;-78
2022/01/22 11:46:42;;;;;;;9.57;6.30;;;3.00;99.90;;;;;;5002701;28;20255;-78
2022/01/22 11:49:27;;;;;;;9.50;7.00;;;3.00;99.90;;;;;;5004852;28;20227;-78
2022/01/22 11:52:13;;;;;;;7.30;6.60;;;2.80;99.90;;;;;;4993206;28;20175;-78
2022/01/22 11:54:56;;;;;;;9.43;6.70;;;2.80;99.90;;;;;;5006907;28;20259;-78
2022/01/22 11:57:26;;;;;;;11.23;6.87;;;2.90;99.90;;;;;;5007783;28;20596;-77
2022/01/22 12:00:15;;;;;;;9.83;6.87;;;3.00;99.90;;;;;;4994357;28;20231;-77
2022/01/22 12:02:40;;;;;;;9.00;6.47;;;3.00;99.90;;;;;;5008290;28;20605;-79
2022/01/22 12:05:07;;;;;;;8.97;6.37;;;3.00;99.90;;;;;;5010353;28;20256;-77
2022/01/22 12:07:36;;;;;;;7.37;6.60;;;2.90;99.90;;;;;;5007914;28;20171;-78
2022/01/22 12:14:27;;;;;;;10.63;6.67;;;2.90;99.90;;;;;;5007898;28;20203;-77
2022/01/22 12:16:15;;;;;;;13.33;7.50;;;2.80;99.90;;;;;;5005180;28;20286;-77
2022/01/22 12:18:50;;;;;;;8.37;7.00;;;3.00;99.90;;;;;;5006270;28;20191;-78
2022/01/22 12:21:48;;;;;;;11.80;7.47;;;3.10;99.90;;;;;;4988946;28;20549;-78
2022/01/22 12:24:30;;;;;;;9.07;7.00;;;3.10;99.90;;;;;;4958946;28;20189;-77
2022/01/22 12:27:01;;;;;;;13.77;7.33;;;3.10;99.90;;;;;;5005937;28;20186;-78
2022/01/22 12:29:29;;;;;;;9.47;6.97;;;3.20;99.90;;;;;;5007783;28;20233;-78
2022/01/22 12:32:07;;;;;;;9.53;6.87;;;3.40;99.90;;;;;;5003109;28;20595;-78
2022/01/22 12:34:56;;;;;;;9.90;7.20;;;3.50;99.90;;;;;;4991635;28;20179;-78
2022/01/22 12:37:23;;;;;;;12.67;7.27;;;3.50;99.90;;;;;;4989142;28;20171;-78
2022/01/22 12:39:52;;;;;;;9.60;7.63;;;3.60;99.90;;;;;;5004560;28;20208;-78
2022/01/22 12:42:35;;;;;;;11.93;7.10;;;3.60;99.90;;;;;;5004211;28;20200;-78
2022/01/22 12:45:05;;;;;;;11.03;6.90;;;3.70;99.90;;;;;;5008591;28;20642;-78
2022/01/22 12:47:32;;;;;;;10.73;7.53;;;3.80;99.90;;;;;;5001821;28;20172;-78
2022/01/22 12:50:06;;;;;;;9.60;6.53;;;3.80;99.90;;;;;;5006220;28;20237;-79
2022/01/22 12:52:36;;;;;;;9.30;7.10;;;3.90;99.90;;;;;;5011545;28;20588;-78
2022/01/22 12:55:20;;;;;;;13.57;7.00;;;3.90;99.90;;;;;;5003437;28;20183;-78
2022/01/22 12:57:46;;;;;;;11.13;7.50;;;3.90;99.90;;;;;;5008934;28;20219;-79
2022/01/22 13:00:17;;;;;;;7.47;6.70;;;4.10;99.90;;;;;;5006035;28;20582;-79
2022/01/22 13:02:45;;;;;;;8.00;7.20;;;4.30;99.90;;;;;;5004231;28;20255;-78
2022/01/22 13:05:13;;;;;;;8.07;6.97;;;4.30;99.90;;;;;;5009362;28;20181;-78
2022/01/22 13:07:52;;;;;;;9.80;6.90;;;4.20;99.90;;;;;;5007743;28;20172;-79
2022/01/22 13:10:19;;;;;;;10.97;7.43;;;4.20;99.90;;;;;;5005845;28;20213;-78
2022/01/22 13:12:46;;;;;;;11.50;7.40;;;4.10;99.90;;;;;;5013108;28;20176;-78
2022/01/22 13:15:17;;;;;;;9.10;6.83;;;4.10;99.90;;;;;;5006097;28;20263;-78
2022/01/22 13:17:51;;;;;;;7.57;6.80;;;4.20;99.90;;;;;;4991852;28;20187;-78
2022/01/22 13:20:25;;;;;;;7.47;6.77;;;4.00;99.90;;;;;;5001139;28;20235;-78
2022/01/22 13:22:52;;;;;;;8.77;7.63;;;4.20;99.90;;;;;;5004421;28;20171;-78
2022/01/22 13:25:19;;;;;;;9.60;7.73;;;4.00;99.90;;;;;;5003121;28;20247;-77
2022/01/22 13:28:00;;;;;;;8.83;7.07;;;4.00;99.90;;;;;;5010386;28;20177;-78
2022/01/22 13:30:33;;;;;;;8.23;6.50;;;4.00;99.90;;;;;;5005503;28;20211;-78
2022/01/22 13:33:06;;;;;;;8.07;7.27;;;4.00;99.90;;;;;;5008705;28;20180;-78
2022/01/22 13:49:29;;;;;;;10.37;6.90;;;4.20;99.90;;;;;;5010971;28;20278;-78
2022/01/22 13:51:58;;;;;;;10.13;7.27;;;4.20;99.90;;;;;;5006419;28;20180;-77
2022/01/22 13:54:35;;;;;;;8.77;7.20;;;4.30;99.90;;;;;;5011738;28;20178;-78
2022/01/22 13:57:12;;;;;;;8.27;7.27;;;4.30;99.90;;;;;;5010001;28;20263;-78
2022/01/22 13:59:43;;;;;;;9.60;6.40;;;4.50;99.90;;;;;;5011574;28;20208;-78
2022/01/22 14:02:49;;;;;;;9.50;7.27;;;4.50;99.90;;;;;;5012529;28;20186;-79
2022/01/22 14:05:15;;;;;;;8.40;6.80;;;4.40;99.90;;;;;;5011100;28;20176;-78
2022/01/22 14:07:46;;;;;;;7.00;6.30;;;4.50;99.90;;;;;;4995796;28;20181;-78
2022/01/22 14:10:14;;;;;;;6.97;6.23;;;4.40;99.90;;;;;;5008578;28;20232;-78
2022/01/22 14:12:50;;;;;;;9.43;6.83;;;4.50;99.90;;;;;;4992842;28;20174;-79
2022/01/22 14:15:26;;;;;;;6.60;5.63;;;4.40;99.90;;;;;;5010091;28;20173;-79
2022/01/22 14:20:49;;;;;;;8.07;6.27;;;4.50;99.90;;;;;;5010905;28;20769;-78
2022/01/22 14:23:18;;;;;;;8.80;6.70;;;4.50;99.90;;;;;;4992629;28;20177;-79
2022/01/22 14:25:57;;;;;;;7.50;6.60;;;4.60;99.90;;;;;;5012240;28;20681;-79
2022/01/22 14:28:41;;;;;;;9.77;6.23;;;4.40;99.90;;;;;;5015250;28;20261;-79
2022/01/22 15:39:50;;;;;;;8.07;6.33;;;5.50;99.90;;;;;;5032793;27;2679711;-82
2022/01/22 15:55:10;;;;;;;9.07;6.83;;;4.40;99.90;;;;;;6226228;22;3057489;-81
2022/01/22 15:57:42;;;;;;;10.37;7.13;;;4.80;99.90;;;;;;6293261;22;20211;-82
2022/01/22 16:00:39;;;;;;;10.13;8.53;;;4.30;99.90;;;;;;6292332;22;20131;-81
2022/01/22 16:03:57;;;;;;;9.03;6.60;;;4.30;99.90;;;;;;6288708;22;20154;-81
2022/01/22 16:10:06;;;;;;;;;;;;;;;;;;;;;
2022/01/22 16:12:43;;;;;;;10.63;7.87;;;4.40;99.90;;;;;;6223717;23;20274;-82
2022/01/22 16:18:55;;;;;;;32.30;7.17;;;4.30;99.90;;;;;;6109257;23;20200;-82
2022/01/22 16:22:08;;;;;;;;;;;;;;;;;;;;;
2022/01/22 16:25:10;;;;;;;9.87;6.30;;;4.40;99.90;;;;;;6255623;22;20148;-82
2022/01/22 16:27:41;;;;;;;7.10;5.90;;;3.90;99.90;;;;;;6261919;22;20179;-82
2022/01/22 16:30:10;;;;;;;138.67;17.33;;;4.20;99.90;;;;;;6234889;23;20222;-82
2022/01/22 16:32:41;;;;;;;11.83;6.37;;;4.30;99.90;;;;;;6261017;23;20183;-82
2022/01/22 16:35:08;;;;;;;9.43;5.97;;;4.80;99.90;;;;;;6260871;23;20165;-82
2022/01/22 16:37:39;;;;;;;6.40;5.80;;;4.30;99.90;;;;;;6264405;23;20150;-82
2022/01/22 16:40:16;;;;;;;6.10;5.50;;;4.30;99.90;;;;;;6264879;23;20132;-83
2022/01/22 16:42:47;;;;;;;7.23;6.10;;;3.90;99.90;;;;;;6238873;23;20183;-83
2022/01/22 16:54:34;;;;;;;6.67;5.70;;;4.30;99.90;;;;;;6260122;23;20241;-83
2022/01/22 16:56:53;;;;;;;7.20;5.80;;;4.30;99.90;;;;;;6253511;22;20194;-83
2022/01/22 16:59:22;;;;;;;10.47;7.03;;;4.30;99.90;;;;;;6254024;23;20135;-82
2022/01/22 17:01:51;;;;;;;12.87;6.90;;;4.30;99.90;;;;;;6227045;23;20182;-83
2022/01/22 17:04:33;;;;;;;13.90;9.60;;;4.20;99.90;;;;;;6254515;23;20151;-82
2022/01/22 17:06:59;;;;;;;9.20;7.63;;;4.20;99.90;;;;;;6253721;23;20159;-82
2022/01/22 17:17:08;;;;;;;15.83;7.83;;;4.20;99.90;;;;;;6253251;23;20174;-83
2022/01/22 17:19:38;;;;;;;9.53;7.23;;;3.90;99.90;;;;;;6253142;23;20146;-84
2022/01/22 17:22:10;;;;;;;9.10;7.37;;;4.10;99.90;;;;;;6254036;23;20148;-83
2022/01/22 17:24:38;;;;;;;8.23;7.03;;;4.10;99.90;;;;;;6255641;22;20143;-83
2022/01/22 17:27:07;;;;;;;7.17;6.47;;;4.70;99.90;;;;;;6283572;22;20155;-83
2022/01/22 17:29:37;;;;;;;14.73;7.37;;;4.10;99.90;;;;;;6283416;22;20159;-83
2022/01/22 17:32:06;;;;;;;13.50;8.57;;;4.30;99.90;;;;;;6283371;22;20158;-83
2022/01/22 17:34:40;;;;;;;13.90;8.30;;;4.00;99.90;;;;;;6283638;22;20206;-82
2022/01/22 17:37:15;;;;;;;8.93;7.63;;;4.00;99.90;;;;;;6258954;22;20174;-84
2022/01/22 17:39:44;;;;;;;10.57;7.77;;;4.00;99.90;;;;;;6285269;22;20239;-84
2022/01/22 17:42:17;;;;;;;11.70;8.13;;;4.00;99.90;;;;;;6289225;22;20195;-82
2022/01/22 17:45:09;;;;;;;28.90;16.90;;;3.90;99.90;;;;;;6290263;22;20215;-83
2022/01/22 17:47:40;;;;;;;30.83;19.47;;;4.40;99.90;;;;;;6282969;22;20152;-83
2022/01/22 17:50:13;;;;;;;12.33;9.77;;;3.90;99.90;;;;;;6284597;22;20151;-83
2022/01/22 17:52:39;;;;;;;14.17;9.17;;;3.90;99.90;;;;;;6256662;22;20274;-83
2022/01/22 17:55:05;;;;;;;36.07;18.23;;;3.90;99.90;;;;;;6284200;22;20175;-83